createdAt,value
2022-11-27T00:02:42.815Z,2.15
2022-11-27T00:07:40.843Z,1.79
2022-11-27T00:12:38.816Z,2.01
2022-11-27T00:17:40.945Z,2.00
2022-11-27T00:22:39.009Z,2.06
2022-11-27T00:27:38.741Z,2.29
2022-11-27T00:32:38.456Z,2.51
2022-11-27T00:37:37.513Z,2.84
2022-11-27T00:42:35.536Z,2.81
2022-11-27T00:47:33.454Z,2.67
2022-11-27T00:52:32.851Z,3.05
2022-11-27T00:57:30.720Z,2.93
2022-11-27T01:02:28.664Z,3.15
2022-11-27T01:07:27.836Z,3.23
2022-11-27T01:12:27.072Z,3.03
2022-11-27T01:17:25.002Z,2.74
2022-11-27T01:22:22.814Z,2.45
2022-11-27T01:27:20.801Z,2.55
2022-11-27T01:32:20.024Z,2.55
2022-11-27T01:37:17.963Z,2.50
2022-11-27T01:42:16.046Z,2.41
2022-11-27T01:47:15.789Z,2.57
2022-11-27T01:52:18.160Z,2.35
2022-11-27T01:57:19.309Z,2.69
2022-11-27T02:02:17.189Z,2.63
2022-11-27T02:07:16.559Z,2.65
2022-11-27T02:12:17.807Z,2.84
2022-11-27T02:17:19.656Z,2.93
2022-11-27T02:22:26.464Z,2.51
2022-11-27T02:27:51.571Z,2.57
2022-11-27T02:32:53.504Z,2.68
2022-11-27T02:37:54.589Z,2.69
2022-11-27T02:42:54.895Z,2.75
2022-11-27T02:47:55.231Z,2.85
2022-11-27T02:52:56.061Z,2.79
2022-11-27T02:57:56.123Z,2.72
2022-11-27T03:02:58.328Z,2.68
2022-11-27T03:08:01.012Z,2.56
2022-11-27T03:13:00.005Z,2.66
2022-11-27T03:18:02.628Z,3.04
2022-11-27T03:23:00.731Z,3.16
2022-11-27T03:28:01.168Z,3.06
2022-11-27T03:33:00.596Z,3.12
2022-11-27T03:37:58.620Z,3.24
2022-11-27T03:42:59.848Z,3.33
2022-11-27T03:48:05.240Z,3.62
2022-11-27T03:53:09.532Z,3.43
2022-11-27T03:58:09.642Z,3.65
2022-11-27T04:03:10.401Z,3.47
2022-11-27T04:08:08.450Z,3.64
2022-11-27T04:13:06.462Z,3.44
2022-11-27T04:18:04.587Z,3.19
2022-11-27T04:23:03.781Z,3.16
2022-11-27T04:28:01.647Z,2.99
2022-11-27T04:32:59.748Z,3.19
2022-11-27T04:37:57.837Z,3.34
2022-11-27T04:42:57.164Z,3.58
2022-11-27T04:47:55.066Z,3.70
2022-11-27T04:52:53.013Z,3.47
2022-11-27T04:57:50.855Z,3.51
2022-11-27T05:02:50.143Z,3.71
2022-11-27T05:07:48.308Z,4.08
2022-11-27T05:12:46.244Z,3.63
2022-11-27T05:17:44.107Z,3.81
2022-11-27T05:22:44.516Z,3.79
2022-11-27T05:27:42.465Z,3.76
2022-11-27T05:32:40.504Z,3.92
2022-11-27T05:37:38.358Z,3.83
2022-11-27T05:42:37.584Z,4.04
2022-11-27T05:47:35.475Z,4.18
2022-11-27T05:52:33.316Z,4.13
2022-11-27T05:57:31.999Z,4.29
2022-11-27T06:02:31.305Z,4.44
2022-11-27T06:07:29.277Z,4.50
2022-11-27T06:12:27.326Z,4.37
2022-11-27T06:17:25.250Z,4.63
2022-11-27T06:22:24.569Z,4.69
2022-11-27T06:27:22.657Z,4.69
2022-11-27T06:32:21.023Z,4.63
2022-11-27T06:37:18.976Z,4.83
2022-11-27T06:42:18.444Z,4.99
2022-11-27T06:47:16.440Z,5.06
2022-11-27T06:52:14.523Z,4.97
2022-11-27T06:57:12.607Z,5.15
2022-11-27T07:02:14.760Z,5.15
2022-11-27T07:07:12.792Z,5.14
2022-11-27T07:12:10.839Z,5.22
2022-11-27T07:17:08.701Z,5.28
2022-11-27T07:22:07.916Z,5.31
2022-11-27T07:27:06.043Z,5.53
2022-11-27T07:32:03.998Z,5.49
2022-11-27T07:37:02.075Z,5.42
2022-11-27T07:42:23.190Z,5.50
2022-11-27T07:47:20.193Z,5.70
2022-11-27T07:52:18.318Z,5.60
2022-11-27T07:57:18.273Z,5.68
2022-11-27T08:02:18.614Z,5.61
2022-11-27T08:07:16.786Z,5.78
2022-11-27T08:12:14.933Z,5.75
2022-11-27T08:17:15.103Z,5.73
2022-11-27T08:22:13.545Z,5.95
2022-11-27T08:27:11.761Z,5.89
2022-11-27T08:32:12.113Z,6.04
2022-11-27T08:37:11.559Z,6.22
2022-11-27T08:42:10.831Z,6.08
2022-11-27T08:47:08.836Z,6.16
2022-11-27T08:52:06.789Z,6.38
2022-11-27T08:57:06.621Z,6.05
2022-11-27T09:02:07.409Z,6.44
2022-11-27T09:07:05.630Z,6.62
2022-11-27T09:12:04.154Z,6.57
2022-11-27T09:17:04.321Z,6.30
2022-11-27T09:22:03.168Z,6.63
2022-11-27T09:27:12.196Z,6.67
2022-11-27T09:32:13.055Z,6.86
2022-11-27T09:37:16.577Z,6.97
2022-11-27T09:42:19.539Z,6.72
2022-11-27T09:47:21.806Z,6.85
2022-11-27T09:52:24.123Z,7.01
2022-11-27T09:57:26.983Z,6.91
2022-11-27T10:02:29.060Z,7.05
2022-11-27T10:07:35.488Z,6.96
2022-11-27T10:12:41.608Z,7.14
2022-11-27T10:17:44.946Z,7.26
2022-11-27T10:22:48.487Z,7.07
2022-11-27T10:28:02.373Z,7.10
2022-11-27T10:33:04.647Z,7.02
2022-11-27T10:38:07.035Z,6.91
2022-11-27T10:43:11.514Z,7.18
2022-11-27T10:48:13.271Z,7.46
2022-11-27T10:53:15.957Z,7.55
2022-11-27T10:58:18.339Z,7.73
2022-11-27T11:03:19.211Z,7.90
2022-11-27T11:08:20.266Z,7.72
2022-11-27T11:13:22.772Z,7.89
2022-11-27T11:18:23.487Z,7.92
2022-11-27T11:23:23.313Z,7.69
2022-11-27T11:28:21.555Z,7.59
2022-11-27T11:33:21.928Z,7.69
2022-11-27T11:38:33.549Z,7.54
2022-11-27T11:43:33.885Z,7.68
2022-11-27T11:48:34.210Z,7.75
2022-11-27T11:53:37.911Z,7.90
2022-11-27T11:58:41.901Z,7.95
2022-11-27T12:03:47.222Z,7.97
2022-11-27T12:08:55.645Z,7.92
2022-11-27T12:14:01.520Z,7.86
2022-11-27T12:19:07.771Z,7.88
2022-11-27T12:24:30.250Z,7.89
2022-11-27T12:29:51.003Z,7.96
2022-11-27T12:34:58.163Z,7.97
2022-11-27T12:40:09.960Z,7.93
2022-11-27T12:45:17.098Z,7.83
2022-11-27T12:50:20.411Z,7.95
2022-11-27T12:55:22.541Z,7.95
2022-11-27T13:00:21.927Z,7.95
2022-11-27T13:05:22.889Z,7.92
2022-11-27T13:10:25.667Z,7.87
2022-11-27T13:15:26.553Z,7.92
2022-11-27T13:20:28.402Z,7.89
2022-11-27T13:25:28.014Z,7.83
2022-11-27T13:30:27.286Z,7.89
2022-11-27T13:35:29.002Z,7.83
2022-11-27T13:40:30.890Z,7.78
2022-11-27T13:45:30.032Z,7.79
2022-11-27T13:50:31.279Z,7.72
2022-11-27T13:55:32.085Z,7.79
2022-11-27T14:00:34.602Z,7.69
2022-11-27T14:05:37.139Z,7.49
2022-11-27T14:10:36.571Z,7.59
2022-11-27T14:15:36.614Z,7.66
2022-11-27T14:20:38.645Z,7.59
2022-11-27T14:25:38.469Z,7.59
2022-11-27T14:30:37.275Z,7.53
2022-11-27T14:35:35.209Z,7.46
2022-11-27T14:40:33.035Z,7.44
2022-11-27T14:45:36.031Z,7.43
2022-11-27T14:50:40.400Z,7.41
2022-11-27T14:55:38.394Z,7.38
2022-11-27T15:00:37.959Z,7.38
2022-11-27T15:05:38.715Z,7.37
2022-11-27T15:10:40.460Z,7.37
2022-11-27T15:15:43.108Z,7.33
2022-11-27T15:20:41.837Z,7.38
2022-11-27T15:25:41.025Z,7.33
2022-11-27T15:30:46.616Z,7.36
2022-11-27T15:35:46.943Z,7.33
2022-11-27T15:40:57.283Z,7.43
2022-11-27T15:45:57.686Z,7.34
2022-11-27T15:50:55.745Z,7.44
2022-11-27T15:55:53.569Z,7.48
2022-11-27T16:00:51.386Z,7.44
2022-11-27T16:05:53.866Z,7.47
2022-11-27T16:10:51.711Z,7.46
2022-11-27T16:15:49.565Z,7.47
2022-11-27T16:20:48.044Z,7.43
2022-11-27T16:25:47.614Z,7.44
2022-11-27T16:30:45.895Z,7.36
2022-11-27T16:35:43.740Z,7.38
2022-11-27T16:40:41.956Z,7.41
2022-11-27T16:45:41.223Z,7.40
2022-11-27T16:50:40.741Z,7.36
2022-11-27T16:55:39.694Z,7.35
2022-11-27T17:00:37.773Z,7.34
2022-11-27T17:05:40.126Z,7.33
2022-11-27T17:10:38.471Z,7.35
2022-11-27T17:15:40.870Z,7.34
2022-11-27T17:20:41.646Z,7.35
2022-11-27T17:25:43.836Z,7.35
2022-11-27T17:30:42.043Z,7.37
2022-11-27T17:35:42.437Z,7.37
2022-11-27T17:40:40.763Z,7.38
2022-11-27T17:45:41.757Z,7.39
2022-11-27T17:50:40.371Z,7.40
2022-11-27T17:55:39.872Z,7.42
2022-11-27T18:00:42.647Z,7.44
2022-11-27T18:05:41.147Z,7.46
2022-11-27T18:10:40.455Z,7.44
2022-11-27T18:15:38.697Z,7.44
2022-11-27T18:20:36.846Z,7.43
2022-11-27T18:25:34.890Z,7.44
2022-11-27T18:30:39.309Z,7.42
2022-11-27T18:35:42.272Z,7.31
2022-11-27T18:40:42.271Z,7.15
2022-11-27T18:45:42.204Z,7.18
2022-11-27T18:50:40.284Z,7.24
2022-11-27T18:55:38.535Z,7.14
2022-11-27T19:00:36.912Z,7.12
2022-11-27T19:05:37.867Z,7.14
2022-11-27T19:10:35.874Z,7.16
2022-11-27T19:15:34.196Z,7.16
2022-11-27T19:20:33.535Z,7.03
2022-11-27T19:25:37.417Z,7.20
2022-11-27T19:30:36.864Z,7.21
2022-11-27T19:35:38.428Z,7.23
2022-11-27T19:40:38.959Z,7.28
2022-11-27T19:45:37.837Z,7.18
2022-11-27T19:50:41.597Z,7.20
2022-11-27T19:55:41.835Z,7.20
2022-11-27T20:00:40.279Z,7.11
2022-11-27T20:05:39.234Z,7.00
2022-11-27T20:10:37.065Z,6.96
2022-11-27T20:15:37.383Z,7.05
2022-11-27T20:20:35.917Z,7.12
2022-11-27T20:25:34.990Z,7.18
2022-11-27T20:30:34.714Z,7.19
2022-11-27T20:35:41.939Z,7.20
2022-11-27T20:40:49.297Z,7.11
2022-11-27T20:45:47.661Z,6.92
2022-11-27T20:50:51.367Z,6.84
2022-11-27T20:55:49.920Z,6.97
2022-11-27T21:00:50.402Z,7.04
2022-11-27T21:05:52.232Z,7.08
2022-11-27T21:11:00.059Z,7.06
2022-11-27T21:15:58.449Z,7.05
2022-11-27T21:20:57.847Z,7.09
2022-11-27T21:25:55.726Z,7.16
2022-11-27T21:30:55.641Z,7.19
2022-11-27T21:35:57.162Z,7.20
2022-11-27T21:40:58.738Z,7.18
2022-11-27T21:45:56.698Z,7.20
2022-11-27T21:51:02.944Z,7.20
2022-11-27T21:56:04.702Z,7.21
2022-11-27T22:01:02.965Z,7.21
2022-11-27T22:06:07.205Z,7.21
2022-11-27T22:11:07.152Z,7.18
2022-11-27T22:16:09.619Z,7.17
2022-11-27T22:21:12.013Z,7.16
2022-11-27T22:26:11.784Z,7.09
2022-11-27T22:31:10.921Z,7.14
2022-11-27T22:36:16.355Z,7.08
2022-11-27T22:41:15.124Z,7.12
2022-11-27T22:46:14.958Z,7.09
2022-11-27T22:51:15.296Z,7.19
2022-11-27T22:56:13.508Z,7.16
2022-11-27T23:01:15.745Z,7.16
2022-11-27T23:06:16.379Z,7.09
2022-11-27T23:11:16.212Z,7.11
2022-11-27T23:16:15.314Z,7.11
2022-11-27T23:21:18.508Z,7.08
2022-11-27T23:26:19.439Z,7.09
2022-11-27T23:31:32.035Z,7.04
2022-11-27T23:36:32.707Z,7.09
2022-11-27T23:41:30.594Z,7.08
2022-11-27T23:46:29.339Z,7.08
2022-11-27T23:51:31.317Z,7.07
2022-11-27T23:56:31.434Z,6.99
